KGBD

Great Bend Municipal Airport

Great Bend, Kansas, USA
KGBD 181742Z 1818/1918 18010KT P6SM BKN100 FM191600 30015G25KT P6SM BKN070 AMD LTD TO CLD VIS AND WIND
Issued Valid From Valid To
Dec-18 @ 17:42 UTC
(6 hours ago)
Dec-18 @ 18:00 UTC
(5 hours ago)
Dec-19 @ 18:00 UTC
(in 19 hours)
Dec-18 @ 18:00 to Dec-19 @ 16:00
KGBD 181742Z 1818/1918 18010KT P6SM BKN100
Wind Visibility Clouds
180° at 10 knots Greater than 6 miles
  • Broken at 10,000' AGL
From Dec-19 @ 16:00 to Dec-19 @ 18:00
FM191600 30015G25KT P6SM BKN070 AMD LTD TO CLD VIS AND WIND
Wind Visibility Clouds
300° at 15 knots
 Gusting to 25 knots
Greater than 6 miles
  • Broken at 7,000' AGL
KGBD 181742Z 1818/1918 18010KT P6SM BKN100 FM191600 30015G25KT P6SM BKN070 AMD LTD TO CLD VIS AND WIND
Issued Dec-18 @ 17:42 UTC
(6 hours ago)
Valid From Dec-18 @ 18:00 UTC
(5 hours ago)
Valid To Dec-19 @ 18:00 UTC
(in 19 hours)
Dec-18 @ 18:00 - Dec-19 @ 16:00
Wind Visibility
180° at 10 knots Greater than 6 miles
Clouds
  • Broken at 10,000' AGL
From Dec-19 @ 16:00 - Dec-19 @ 18:00
Wind Visibility
300° at 15 knots
 Gusting to 25 knots
Greater than 6 miles
Clouds
  • Broken at 7,000' AGL